Tiempo atmosférico en la estación meteorológica de Binissalem, Illes Balears (105 m.)

Fecha
DESCASC
Temp. máxima en grados centígrados (hora)
DESCASC
Temp. mínima en grados centígrados (hora)
DESCASC
Temp. media en grados centígrados
DESCASC
Racha de viento máxima en m/sg (hora)
DESCASC
Velocidad máxima media en intervalos de 10 minutos(hora)
DESCASC
Precipitaciones diarias en mm
DESCASC
Precipitaciones de 00:00 a 06:00 en mm
DESCASC
Precipitaciones de 06:00 a 12:00 en mm
DESCASC
Precipitaciones de 12:00 a 18:00 en mm
DESCASC
Precipitaciones de 18:00 a 24:00 en mm
DESCASC
23-11-2017 20.3 (14:30) 4.4 (07:50) 12.3 8.33 (15:30) 5.83 (15:30) 0 0 0 0 0
22-11-2017 20.2 (14:00) 6.9 (08:00) 13.6 5.28 (15:00) 3.61 (16:00) 0 0 0 0 0
21-11-2017 20.2 (14:30) 3.7 (07:50) 12 6.94 (13:30) 4.72 (12:00) 0 0 0 0 0
20-11-2017 19.7 (13:40) 3.7 (07:10) 11.7 6.67 (14:30) 4.44 (15:00) 0 0 0 0 0
19-11-2017 20.2 (15:00) 3.7 (00:00) 12 5.56 (13:20) 3.61 (13:20) 0 0 0 0 0
18-11-2017 19.9 (14:10) 3 (00:00) 11.4 7.5 (14:40) 4.17 (14:50) 0 0 0 0 0
17-11-2017 19.7 (15:00) 1.8 (00:00) 10.8 4.72 (14:30) 2.5 (14:10) 0 0 0 0 0
16-11-2017 19.6 (15:30) 1.5 (00:00) 10.6 4.17 (16:30) 2.5 (16:30) 0 0 0 0 0
15-11-2017 18.5 (15:40) 3.9 (00:00) 11.2 6.67 (13:50) 4.72 (13:50) 0 0 0 0 0
14-11-2017 13.9 (12:10) 6.8 (00:00) 10.3 15 (04:40) 8.61 (04:20) 0 0 0 0 0
13-11-2017 17.4 (03:20) 9.6 (00:00) 13.5 21.67 (03:20) 14.72 (03:00) 1.4 1 0.4 0 0
12-11-2017 20.7 (14:30) 8.4 (00:00) 14.6 8.89 (23:00) 5.56 (23:50) 0 0 0 0 0
11-11-2017 19.2 (15:40) 7.9 (00:00) 13.6 6.11 (21:40) 3.89 (10:20) 0 0 0 0 0
10-11-2017 15.2 (13:40) 7.2 (00:00) 11.2 11.67 (13:00) 7.5 (13:00) 0.6 0.6 0 0 0
09-11-2017 14.4 (14:50) 7.7 (00:00) 11 10 (06:00) 6.11 (06:20) 5.8 0.4 2.8 0 2.6
08-11-2017 17.9 (14:30) 3.2 (00:00) 10.5 11.94 (23:20) 7.22 (23:20) 0.8 0 0 0 0.8
07-11-2017 16.4 (12:50) 5 (00:00) 10.7 7.78 (12:50) 5 (14:10) 0 0 0 0 0
06-11-2017 16 (13:50) 8.8 (00:00) 12.4 15 (15:20) 8.61 (15:20) 6.2 1 4.6 0 0.6
05-11-2017 20.5 (13:40) 12.7 (00:00) 16.6 7.78 (14:20) 4.72 (14:20) 2.8 0.6 0 1 1.2
04-11-2017 23.7 (13:30) 13.8 (00:00) 18.8 9.17 (12:30) 6.39 (15:20) 1.2 0 0 0 1.2
03-11-2017 23.9 (15:50) 8.5 (00:00) 16.2 5.28 (12:30) 2.78 (16:00) 0 0 0 0 0
02-11-2017 23.1 (15:00) 8.2 (06:20) 15.7 5 (17:30) 3.06 (17:00) 0 0 0 0 0
01-11-2017 21.9 (13:20) 8 (00:00) 14.9 -- (--) -- (--) 0 0 0 0 0
31-10-2017 21.4 (15:30) 10.6 (00:00) 16 8.61 (11:30) 4.17 (11:10) 0 0 0 0 0
30-10-2017 22.6 (13:40) 8.7 (00:00) 15.7 7.22 (15:30) 3.89 (15:30) 0 0 0 0 0
29-10-2017 22.8 (13:30) 9.8 (00:00) 16.3 8.61 (14:30) 6.39 (14:10) 0 0 0 0 0
28-10-2017 21.7 (13:00) 12.2 (00:00) 17 11.11 (11:30) 6.39 (14:30) 0 0 0 0 0
27-10-2017 25.7 (15:00) 9.7 (00:00) 17.7 6.11 (21:10) 3.61 (16:20) 0 0 0 0 0
26-10-2017 24.5 (15:00) 10.3 (00:00) 17.4 7.22 (14:30) 4.44 (11:30) 0 0 0 0 0
25-10-2017 24.2 (15:00) 9.2 (00:00) 16.7 5.83 (14:20) 3.89 (18:00) 0 0 0 0 0

Gráficas

Temp. máximas Temp. mínimas Temp. medias Precipitaciones Rachas de viento máximas Velocidades máximas media en intervalos de 10 minutos

Datos horarios

Fecha y hora oficial Temperatura (ºC) Velocidad del viento (km/h) Dirección del viento Racha (km/h) Dirección de racha Precipitación (mm) Presión (hPa) Tendencia (hPa) Humedad (%)
2017-11-23 23:00:00 12.3 11 Sudoeste 20 Sudoeste 0 -- -- 88
2017-11-23 22:00:00 11 8 Sudoeste 14 Oeste 0 -- -- 89
2017-11-23 21:00:00 11.6 10 Oeste 14 Oeste 0 -- -- 91
2017-11-23 20:00:00 12.1 7 Oeste 9 Oeste 0 -- -- 87
2017-11-23 19:00:00 13.2 4 Oeste 8 Oeste 0 -- -- 82
2017-11-23 18:00:00 15.4 6 Oeste 15 Sudoeste 0 -- -- 75
2017-11-23 17:00:00 17.8 11 Sudoeste 26 Sudoeste 0 -- -- 65
2017-11-23 16:00:00 19.1 17 Sudoeste 30 Sudoeste 0 -- -- 67
2017-11-23 15:00:00 20.2 14 Sudoeste 23 Sudoeste 0 -- -- 63
2017-11-23 14:00:00 20.2 13 Sudoeste 25 Sudoeste 0 -- -- 65
2017-11-23 13:00:00 19.8 14 Sudoeste 21 Sudoeste 0 -- -- 70
2017-11-23 12:00:00 19 10 Sudoeste 18 Sudoeste 0 -- -- 72
2017-11-23 11:00:00 17.2 7 Sudoeste 13 Sudoeste 0 -- -- 82
2017-11-23 10:00:00 14.2 6 Sudoeste 9 Sudoeste 0 -- -- 95
2017-11-23 09:00:00 8.4 4 Oeste 6 Oeste 0 -- -- 98
2017-11-23 08:00:00 4.5 0 Calma 6 Oeste 0 -- -- 96
2017-11-23 07:00:00 4.7 2 Oeste 7 Oeste 0 -- -- 95
2017-11-23 06:00:00 5.1 4 Oeste 7 Sudoeste 0 -- -- 94
2017-11-23 05:00:00 6.3 3 Noroeste 6 Sur 0 -- -- 94
2017-11-23 04:00:00 6.4 3 Sudoeste 7 Sur 0 -- -- 94
2017-11-23 03:00:00 6.9 4 Sudoeste 5 Sudoeste 0 -- -- 92
2017-11-23 02:00:00 7.4 3 Noroeste 8 Noroeste 0 -- -- 91
2017-11-23 01:00:00 8.2 3 Noroeste 10 Noroeste 0 -- -- 91
2017-11-23 00:00:00 8.7 8 Noroeste 10 Noroeste 0 -- -- 93
2017-11-22 23:00:00 7.7 3 Noroeste 6 Noroeste 0 -- -- 91
2017-11-22 22:00:00 8.9 4 Noroeste 5 Noroeste 0 -- -- 91
2017-11-22 21:00:00 9.7 3 Oeste 8 Noroeste 0 -- -- 89
2017-11-22 20:00:00 10.9 5 Noroeste 7 Noroeste 0 -- -- 87
2017-11-22 19:00:00 12.8 3 Sudoeste 8 Oeste 0 -- -- 79
2017-11-22 18:00:00 15.1 4 Oeste 8 Oeste 0 -- -- 75
2017-11-22 17:00:00 17.3 8 Oeste 17 Sudoeste 0 -- -- 70
2017-11-22 16:00:00 18.5 13 Oeste 19 Oeste 0 -- -- 66
2017-11-22 15:00:00 19.7 12 Oeste 19 Oeste 0 -- -- 59
2017-11-22 14:00:00 20.2 10 Sudoeste 16 Oeste 0 -- -- 58
2017-11-22 13:00:00 19.7 8 Sudoeste 19 Sur 0 -- -- 60
2017-11-22 12:00:00 18.3 5 Sudoeste 15 Sudoeste 0 -- -- 68
2017-11-22 11:00:00 17.8 7 Sur 12 Sur 0 -- -- 79
2017-11-22 10:00:00 14.6 2 Sur 5 Sur 0 -- -- 95
2017-11-22 09:00:00 11.2 0 Calma 4 Noroeste 0 -- -- 98
2017-11-22 08:00:00 6.9 3 Noroeste 4 Noroeste 0 -- -- 95
2017-11-22 07:00:00 7.3 2 Noroeste 4 Noroeste 0 -- -- 95
2017-11-22 06:00:00 7.2 2 Noroeste 4 Noroeste 0 -- -- 95
2017-11-22 05:00:00 7.5 3 Oeste 8 Noroeste 0 -- -- 95
2017-11-22 04:00:00 8 0 Calma 4 Noroeste 0 -- -- 94
2017-11-22 03:00:00 9.3 3 Noroeste 5 Sudoeste 0 -- -- 94
2017-11-22 02:00:00 10.2 3 Sudoeste 8 Sudoeste 0 -- -- 93
2017-11-22 01:00:00 10.7 5 Sudoeste 8 Sudoeste 0 -- -- 94
2017-11-22 00:00:00 11 6 Sudoeste 10 Sudoeste 0 -- -- 92
2017-11-21 23:00:00 11.6 6 Sudoeste 9 Oeste 0 -- -- 93
2017-11-21 22:00:00 11 8 Sudoeste 10 Sudoeste 0 -- -- 92
2017-11-21 21:00:00 11.4 7 Sudoeste 9 Sudoeste 0 -- -- 89
2017-11-21 20:00:00 13.6 5 Oeste 10 Oeste 0 -- -- 85
2017-11-21 19:00:00 14.9 6 Oeste 9 Oeste 0 -- -- 83
2017-11-21 18:00:00 16.2 6 Oeste 15 Sudoeste 0 -- -- 78
2017-11-21 17:00:00 18 12 Sudoeste 21 Oeste 0 -- -- 73
2017-11-21 16:00:00 19 15 Sudoeste 22 Sudoeste 0 -- -- 68
2017-11-21 15:00:00 20.2 13 Sudoeste 19 Sudoeste 0 -- -- 64
2017-11-21 14:00:00 20.1 11 Sudoeste 25 Sudoeste 0 -- -- 65
2017-11-21 13:00:00 19.6 15 Sudoeste 22 Sudoeste 0 -- -- 66
2017-11-21 12:00:00 19.1 17 Sudoeste 23 Sudoeste 0 -- -- 68
2017-11-21 11:00:00 17.2 7 Sudoeste 13 Sudoeste 0 -- -- 78
2017-11-21 10:00:00 12.9 2 Sur 4 Sur 0 -- -- 94
2017-11-21 09:00:00 8 2 Sudoeste 5 Sudoeste 0 -- -- 97
2017-11-21 08:00:00 3.8 0 Calma 6 Oeste 0 -- -- 95
2017-11-21 07:00:00 4 5 Oeste 6 Oeste 0 -- -- 95
2017-11-21 06:00:00 4.3 3 Sudoeste 5 Sudoeste 0 -- -- 94
2017-11-21 05:00:00 4.9 2 Oeste 4 Oeste 0 -- -- 94
2017-11-21 04:00:00 5.1 2 Oeste 5 Noroeste 0 -- -- 94
2017-11-21 03:00:00 5.7 4 Noroeste 5 Noroeste 0 -- -- 94
2017-11-21 02:00:00 6.2 3 Noroeste 6 Noroeste 0 -- -- 93
2017-11-21 01:00:00 6.3 3 Oeste 4 Oeste 0 -- -- 92
2017-11-21 00:00:00 7.2 0 Calma 4 Sudoeste 0 -- -- 91
2017-11-20 23:00:00 8.7 4 Sudoeste 12 Sudoeste 0 -- -- 92
2017-11-20 22:00:00 8.3 6 Oeste 8 Oeste 0 -- -- 90
2017-11-20 21:00:00 9.7 3 Noroeste 8 Oeste 0 -- -- 89
2017-11-20 20:00:00 11.4 2 Noroeste 6 Noroeste 0 -- -- 85
2017-11-20 19:00:00 13.5 0 Calma 7 Norte 0 -- -- 83
2017-11-20 18:00:00 15.3 0 Calma 13 Sudoeste 0 -- -- 78
2017-11-20 17:00:00 17.6 9 Sudoeste 20 Sudoeste 0 -- -- 71
2017-11-20 16:00:00 18.7 13 Sudoeste 22 Sudoeste 0 -- -- 67
2017-11-20 15:00:00 19.4 16 Sudoeste 24 Sudoeste 0 -- -- 62
2017-11-20 14:00:00 19.1 5 Sudoeste 18 Sudoeste 0 -- -- 60
2017-11-20 13:00:00 19.2 4 Oeste 9 Sudoeste 0 -- -- 53
2017-11-20 12:00:00 18.4 4 Sudeste 9 Sudeste 0 -- -- 56
2017-11-20 11:00:00 16.1 3 Sur 5 Este 0 -- -- 68
2017-11-20 10:00:00 12.8 0 Calma 5 Sudoeste 0 -- -- 95
2017-11-20 09:00:00 7.7 4 Sudoeste 5 Sudoeste 0 -- -- 96
2017-11-20 08:00:00 4 2 Oeste 8 Oeste 0 -- -- 95
2017-11-20 07:00:00 4 3 Sudoeste 5 Sudoeste 0 -- -- 94
2017-11-20 06:00:00 4.7 0 Calma 6 Oeste 0 -- -- 93
2017-11-20 05:00:00 4.6 3 Sudoeste 6 Sudoeste 0 -- -- 94
2017-11-20 04:00:00 5.5 0 Calma 5 Oeste 0 -- -- 94
2017-11-20 03:00:00 4.9 4 Oeste 6 Noroeste 0 -- -- 92
2017-11-20 02:00:00 5.8 3 Oeste 4 Noroeste 0 -- -- 93
2017-11-20 01:00:00 6.1 4 Noroeste 6 Sudoeste 0 -- -- 92
2017-11-20 00:00:00 6.6 3 Oeste 5 Oeste 0 -- -- 91
2017-11-19 23:00:00 6.9 4 Sudoeste 5 Sudoeste 0 -- -- 89
2017-11-19 22:00:00 8.1 0 Calma 4 Noroeste 0 -- -- 88
2017-11-19 21:00:00 9.1 2 Oeste 7 Noroeste 0 -- -- 87
2017-11-19 20:00:00 10.3 6 Noroeste 8 Noroeste 0 -- -- 83
2017-11-19 19:00:00 11.7 5 Noroeste 6 Noroeste 0 -- -- 78
2017-11-19 18:00:00 15.3 4 Sur 12 Este 0 -- -- 69
2017-11-19 17:00:00 18.2 8 Este 18 Este 0 -- -- 61
2017-11-19 16:00:00 19.9 6 Sudoeste 14 Oeste 0 -- -- 47
2017-11-19 15:00:00 20.2 6 Sudoeste 15 Sudoeste 0 -- -- 48
2017-11-19 14:00:00 19.7 10 Sudoeste 20 Sudoeste 0 -- -- 54
2017-11-19 13:00:00 19.7 9 Sudoeste 16 Sudoeste 0 -- -- 58
2017-11-19 12:00:00 18.6 5 Oeste 12 Oeste 0 -- -- 66
2017-11-19 11:00:00 16.6 5 Sudoeste 9 Sudoeste 0 -- -- 83
2017-11-19 10:00:00 12.3 2 Sudeste 5 Este 0 -- -- 95
2017-11-19 09:00:00 8.4 2 Sudoeste 6 Oeste 0 -- -- 97
2017-11-19 08:00:00 4.3 5 Noroeste 6 Noroeste 0 -- -- 96
2017-11-19 07:00:00 3.7 3 Sudoeste 4 Oeste 0 -- -- 94
2017-11-19 06:00:00 4.4 3 Noroeste 5 Noroeste 0 -- -- 94
2017-11-19 05:00:00 4.3 3 Sudoeste 7 Sudoeste 0 -- -- 94
2017-11-19 04:00:00 4.2 0 Calma 5 Noroeste 0 -- -- 93
2017-11-19 03:00:00 5.4 0 Calma 4 Sudoeste 0 -- -- 93
2017-11-19 02:00:00 5.4 0 Calma 5 Sudoeste 0 -- -- 91
2017-11-19 01:00:00 6.4 2 Sudoeste 5 Oeste 0 -- -- 91
2017-11-19 00:00:00 7.2 3 Oeste 6 Oeste 0 -- -- 90
2017-11-18 23:00:00 7.9 3 Noroeste 4 Noroeste 0 -- -- 88
2017-11-18 22:00:00 9.7 3 Noroeste 6 Noroeste 0 -- -- 87
2017-11-18 21:00:00 11.5 5 Noroeste 7 Norte 0 -- -- 83
2017-11-18 20:00:00 13.4 3 Norte 6 Norte 0 -- -- 81
2017-11-18 19:00:00 13.4 4 Norte 6 Norte 0 -- -- 79
2017-11-18 18:00:00 14.4 3 Nordeste 8 Este 0 -- -- 73
2017-11-18 17:00:00 16.5 6 Este 15 Este 0 -- -- 67
2017-11-18 16:00:00 17.5 8 Este 22 Nordeste 0 -- -- 64
2017-11-18 15:00:00 17.8 13 Este 27 Nordeste 0 -- -- 62
2017-11-18 14:00:00 19.8 6 Este 15 Este 0 -- -- 58
2017-11-18 13:00:00 19.1 5 Este 12 Este 0 -- -- 62
2017-11-18 12:00:00 18.1 5 Este 13 Nordeste 0 -- -- 65
2017-11-18 11:00:00 16.6 5 Nordeste 9 Nordeste 0 -- -- 69
2017-11-18 10:00:00 13.6 2 Sur 4 Sur 0 -- -- 83
2017-11-18 09:00:00 8.1 3 Sudoeste 7 Oeste 0 -- -- 94
2017-11-18 08:00:00 3.6 5 Oeste 6 Oeste 0 -- -- 92
2017-11-18 07:00:00 3.2 2 Sudoeste 5 Oeste 0 -- -- 91
2017-11-18 06:00:00 3.5 3 Norte 6 Norte 0 -- -- 91
2017-11-18 05:00:00 4 0 Calma 5 Sudoeste 0 -- -- 91
2017-11-18 04:00:00 4.4 4 Noroeste 5 Noroeste 0 -- -- 90
2017-11-18 03:00:00 4.9 0 Calma 5 Oeste 0 -- -- 90
2017-11-18 02:00:00 5.4 2 Oeste 7 Oeste 0 -- -- 89
2017-11-18 01:00:00 6.1 4 Sudoeste 6 Sudoeste 0 -- -- 89
2017-11-18 00:00:00 6.4 3 Oeste 5 Oeste 0 -- -- 88
2017-11-17 23:00:00 7.4 2 Oeste 8 Noroeste 0 -- -- 86
2017-11-17 22:00:00 8.4 3 Noroeste 7 Noroeste 0 -- -- 86
2017-11-17 21:00:00 8.9 5 Noroeste 8 Norte 0 -- -- 85
2017-11-17 20:00:00 9.9 4 Noroeste 5 Noroeste 0 -- -- 82
2017-11-17 19:00:00 12.5 2 Noroeste 5 Nordeste 0 -- -- 72
2017-11-17 18:00:00 15.4 4 Este 9 Nordeste 0 -- -- 66
2017-11-17 17:00:00 18.4 4 Sudoeste 13 Sudoeste 0 -- -- 58
2017-11-17 16:00:00 19.3 8 Sudoeste 17 Sudoeste 0 -- -- 56
2017-11-17 15:00:00 19.7 8 Sudoeste 17 Sudoeste 0 -- -- 56
2017-11-17 14:00:00 19.6 7 Sudoeste 13 Sudoeste 0 -- -- 51
2017-11-17 13:00:00 18.9 5 Sudoeste 12 Sudoeste 0 -- -- 50
2017-11-17 12:00:00 17.5 5 Sur 12 Sur 0 -- -- 50
2017-11-17 11:00:00 16 4 Sur 9 Sur 0 -- -- 66
2017-11-17 10:00:00 12.2 3 Sudoeste 6 Sur 0 -- -- 94
2017-11-17 09:00:00 6.8 0 Calma 5 Noroeste 0 -- -- 97
2017-11-17 08:00:00 2.4 3 Noroeste 5 Oeste 0 -- -- 96
2017-11-17 07:00:00 1.9 0 Calma 4 Noroeste 0 -- -- 94
2017-11-17 06:00:00 2.6 2 Noroeste 5 Sudoeste 0 -- -- 94
2017-11-17 05:00:00 2.3 3 Sudoeste 6 Oeste 0 -- -- 94
2017-11-17 04:00:00 2.5 4 Sudoeste 6 Sudoeste 0 -- -- 94
2017-11-17 03:00:00 3.6 2 Noroeste 5 Noroeste 0 -- -- 93
2017-11-17 02:00:00 4.4 3 Noroeste 5 Oeste 0 -- -- 93
2017-11-17 01:00:00 4.9 4 Oeste 5 Sur 0 -- -- 92
2017-11-17 00:00:00 5.2 3 Oeste 6 Noroeste 0 -- -- 91
2017-11-16 23:00:00 6.3 3 Noroeste 7 Noroeste 0 -- -- 91
2017-11-16 22:00:00 7.6 5 Noroeste 10 Noroeste 0 -- -- 90
2017-11-16 21:00:00 8.1 5 Noroeste 7 Noroeste 0 -- -- 88
2017-11-16 20:00:00 9.4 2 Noroeste 5 Norte 0 -- -- 85
2017-11-16 19:00:00 11.3 4 Norte 6 Nordeste 0 -- -- 79
2017-11-16 18:00:00 14.2 4 Nordeste 12 Este 0 -- -- 71
2017-11-16 17:00:00 17.1 7 Este 15 Este 0 -- -- 65
2017-11-16 16:00:00 19 5 Nordeste 12 Este 0 -- -- 57
2017-11-16 15:00:00 19.1 4 Sudeste 8 Sudoeste 0 -- -- 45
2017-11-16 14:00:00 18.6 3 Sudoeste 10 Oeste 0 -- -- 46
2017-11-16 13:00:00 18.5 5 Sudeste 12 Este 0 -- -- 51
2017-11-16 12:00:00 17.5 4 Este 12 Este 0 -- -- 53
2017-11-16 11:00:00 15.6 3 Sudoeste 6 Sur 0 -- -- 60
2017-11-16 10:00:00 10.3 0 Calma 5 Oeste 0 -- -- 86
2017-11-16 09:00:00 5.1 2 Oeste 5 Sudoeste 0 -- -- 93
2017-11-16 08:00:00 2.2 4 Oeste 5 Oeste 0 -- -- 92
2017-11-16 07:00:00 1.8 3 Oeste 6 Oeste 0 -- -- 91
2017-11-16 06:00:00 1.7 3 Oeste 5 Oeste 0 -- -- 91
2017-11-16 05:00:00 1.6 2 Sudoeste 4 Noroeste 0 -- -- 90
2017-11-16 04:00:00 2 0 Calma 4 Noroeste 0 -- -- 90
2017-11-16 03:00:00 2.7 2 Oeste 5 Oeste 0 -- -- 90
2017-11-16 02:00:00 3.2 3 Noroeste 6 Noroeste 0 -- -- 89
2017-11-16 01:00:00 3.6 4 Noroeste 5 Noroeste 0 -- -- 88
2017-11-16 00:00:00 3.9 3 Noroeste 5 Noroeste 0 -- -- 87
2017-11-15 23:00:00 4.7 3 Oeste 6 Oeste 0 -- -- 86
2017-11-15 22:00:00 5.4 0 Calma 4 Noroeste 0 -- -- 83
2017-11-15 21:00:00 6.9 4 Noroeste 13 Noroeste 0 -- -- 81
2017-11-15 20:00:00 7.9 5 Noroeste 7 Noroeste 0 -- -- 75
2017-11-15 19:00:00 9.6 4 Noroeste 8 Sudeste 0 -- -- 68
2017-11-15 18:00:00 13.2 6 Sudeste 13 Este 0 -- -- 56
2017-11-15 17:00:00 16.2 8 Sudeste 15 Sudeste 0 -- -- 48
2017-11-15 16:00:00 18 3 Este 8 Sur 0 -- -- 39
2017-11-15 15:00:00 17.6 5 Oeste 22 Noroeste 0 -- -- 40
2017-11-15 14:00:00 17.1 14 Noroeste 24 Noroeste 0 -- -- 47
2017-11-15 13:00:00 16.7 13 Noroeste 22 Oeste 0 -- -- 50
2017-11-15 12:00:00 16.5 13 Noroeste 21 Noroeste 0 -- -- 52
2017-11-15 11:00:00 16.2 8 Oeste 17 Oeste 0 -- -- 53
2017-11-15 10:00:00 14.6 12 Sudoeste 17 Sudoeste 0 -- -- 65
2017-11-15 09:00:00 9.9 4 Oeste 11 Oeste 0 -- -- 85
2017-11-15 08:00:00 4.5 0 Calma 6 Sudoeste 0 -- -- 84
2017-11-15 07:00:00 6.5 4 Oeste 13 Oeste 0 -- -- 79
2017-11-15 06:00:00 7.4 10 Oeste 18 Oeste 0 -- -- 77
2017-11-15 05:00:00 7.2 9 Oeste 17 Oeste 0 -- -- 77
2017-11-15 04:00:00 6 7 Oeste 11 Oeste 0 -- -- 77
2017-11-15 03:00:00 6.9 8 Noroeste 12 Oeste 0 -- -- 78
2017-11-15 02:00:00 6.8 5 Oeste 8 Oeste 0 -- -- 74
2017-11-15 01:00:00 8.2 6 Norte 13 Norte 0 -- -- 71
2017-11-15 00:00:00 7.1 5 Norte 9 Nordeste 0 -- -- 74
2017-11-14 23:00:00 9.2 6 Nordeste 21 Nordeste 0 -- -- 69
2017-11-14 22:00:00 9.4 13 Nordeste 21 Nordeste 0 -- -- 70
2017-11-14 21:00:00 9.5 9 Nordeste 17 Nordeste 0 -- -- 68
2017-11-14 20:00:00 9.6 9 Norte 15 Norte 0 -- -- 68
2017-11-14 19:00:00 9.6 2 Nordeste 18 Nordeste 0 -- -- 66
2017-11-14 18:00:00 10.6 12 Nordeste 32 Nordeste 0 -- -- 63
2017-11-14 17:00:00 11.7 16 Nordeste 44 Nordeste 0 -- -- 58
2017-11-14 16:00:00 12.7 29 Nordeste 50 Nordeste 0 -- -- 55
2017-11-14 15:00:00 13.3 26 Nordeste 45 Nordeste 0 -- -- 53
2017-11-14 14:00:00 13.6 27 Nordeste 46 Nordeste 0 -- -- 49
2017-11-14 13:00:00 13.3 24 Nordeste 42 Nordeste 0 -- -- 53
2017-11-14 12:00:00 13.7 24 Nordeste 39 Norte 0 -- -- 49
2017-11-14 11:00:00 13.3 23 Nordeste 41 Nordeste 0 -- -- 48
2017-11-14 10:00:00 12.3 22 Nordeste 42 Nordeste 0 -- -- 50
2017-11-14 09:00:00 11.6 19 Nordeste 41 Nordeste 0 -- -- 51
2017-11-14 08:00:00 11.2 24 Nordeste 45 Nordeste 0 -- -- 54
2017-11-14 07:00:00 11 23 Nordeste 42 Norte 0 -- -- 48
2017-11-14 06:00:00 11.1 29 Nordeste 53 Nordeste 0 -- -- 46
2017-11-14 05:00:00 11 27 Nordeste 54 Nordeste 0 -- -- 46
2017-11-14 04:00:00 11.8 18 Nordeste 49 Nordeste 0 -- -- 47
2017-11-14 03:00:00 12.1 22 Nordeste 48 Nordeste 0 -- -- 48
2017-11-14 02:00:00 10.4 7 Norte 18 Norte 0 -- -- 59
2017-11-14 01:00:00 11.6 3 Nordeste 20 Nordeste 0 -- -- 52
2017-11-14 00:00:00 12.3 5 Noroeste 22 Norte 0 -- -- 46
2017-11-13 23:00:00 10.1 4 Este 23 Nordeste 0 -- -- 44
2017-11-13 22:00:00 12.6 17 Nordeste 35 Norte 0 -- -- 37
2017-11-13 21:00:00 12 5 Nordeste 24 Nordeste 0 -- -- 46
2017-11-13 20:00:00 12.7 8 Nordeste 22 Norte 0 -- -- 44
2017-11-13 19:00:00 13.9 23 Norte 35 Noroeste 0 -- -- 36
2017-11-13 18:00:00 13.7 14 Norte 45 Nordeste 0 -- -- 34
2017-11-13 17:00:00 14.1 7 Norte 37 Norte 0 -- -- 35
2017-11-13 16:00:00 14 3 Sur 36 Nordeste 0 -- -- 40
2017-11-13 15:00:00 14.3 10 Nordeste 27 Nordeste 0 -- -- 38
2017-11-13 14:00:00 14.7 14 Norte 29 Norte 0 -- -- 39
2017-11-13 13:00:00 13.7 17 Norte 33 Norte 0 -- -- 41
2017-11-13 12:00:00 12.8 5 Noroeste 47 Norte 0 -- -- 54
2017-11-13 11:00:00 13.1 27 Norte 51 Norte 0 -- -- 54
2017-11-13 10:00:00 11.5 23 Norte 44 Nordeste 0 -- -- 62
2017-11-13 09:00:00 11.2 9 Nordeste 29 Nordeste 0 -- -- 78
2017-11-13 08:00:00 10.6 3 Nordeste 18 Nordeste 0.4 -- -- 88
2017-11-13 07:00:00 11.1 13 Nordeste 30 Nordeste 0 -- -- 83
2017-11-13 06:00:00 11.4 16 Nordeste 35 Nordeste 0.4 -- -- 85
2017-11-13 05:00:00 12.4 17 Este 52 Noroeste 0.6 -- -- 85
2017-11-13 04:00:00 16.2 45 Noroeste 78 Noroeste 0 -- -- 69
2017-11-13 03:00:00 17.3 53 Noroeste 77 Noroeste 0 -- -- 61
2017-11-13 02:00:00 17.1 25 Noroeste 47 Noroeste 0 -- -- 63
2017-11-13 01:00:00 16.6 15 Oeste 33 Noroeste 0 -- -- 65
2017-11-13 00:00:00 15.7 19 Sur 30 Sudoeste 0 -- -- 71
2017-11-12 23:00:00 14.8 19 Sudoeste 32 Sudoeste 0 -- -- 73
2017-11-12 22:00:00 13.1 8 Sur 21 Sur 0 -- -- 77
2017-11-12 21:00:00 13.6 11 Sudoeste 18 Sudoeste 0 -- -- 73
2017-11-12 20:00:00 14.3 13 Sudoeste 18 Sudoeste 0 -- -- 71
2017-11-12 19:00:00 14.3 10 Sudoeste 26 Sudoeste 0 -- -- 72
2017-11-12 18:00:00 15.3 9 Sudoeste 22 Oeste 0 -- -- 69
2017-11-12 17:00:00 17.7 11 Oeste 25 Noroeste 0 -- -- 59
2017-11-12 16:00:00 18.9 15 Noroeste 23 Noroeste 0 -- -- 54
2017-11-12 15:00:00 19.9 12 Noroeste 19 Noroeste 0 -- -- 55
2017-11-12 14:00:00 20.3 9 Noroeste 17 Noroeste 0 -- -- 55
2017-11-12 13:00:00 20 5 Norte 14 Noroeste 0 -- -- 56
2017-11-12 12:00:00 19.7 5 Oeste 11 Oeste 0 -- -- 54
2017-11-12 11:00:00 18.5 3 Sudeste 8 Sudeste 0 -- -- 66
2017-11-12 10:00:00 15.9 3 Sudeste 5 Sur 0 -- -- 83
2017-11-12 09:00:00 11.8 3 Nordeste 6 Norte 0 -- -- 95
2017-11-12 08:00:00 8.5 0 Calma 8 Sudoeste 0 -- -- 94
2017-11-12 07:00:00 8.5 5 Oeste 8 Oeste 0 -- -- 93
2017-11-12 06:00:00 8.9 4 Noroeste 6 Noroeste 0 -- -- 92
2017-11-12 05:00:00 10.1 6 Norte 8 Norte 0 -- -- 91
2017-11-12 04:00:00 10.7 0 Calma 10 Nordeste 0 -- -- 88
2017-11-12 03:00:00 12.9 4 Noroeste 17 Sudoeste 0 -- -- 82
2017-11-12 02:00:00 13.5 11 Sudoeste 25 Sudoeste 0 -- -- 84
2017-11-12 01:00:00 13.9 18 Sudoeste 29 Sudoeste 0 -- -- 83
2017-11-12 00:00:00 13.6 13 Oeste 19 Sudoeste 0 -- -- 85
2017-11-11 23:00:00 12 10 Sudoeste 17 Noroeste 0 -- -- 82
2017-11-11 22:00:00 13.2 12 Noroeste 22 Oeste 0 -- -- 81
2017-11-11 21:00:00 11.1 3 Sudoeste 15 Sur 0 -- -- 86
2017-11-11 20:00:00 11.5 5 Norte 9 Sudoeste 0 -- -- 83
2017-11-11 19:00:00 12.8 4 Oeste 11 Sudoeste 0 -- -- 81
2017-11-11 18:00:00 15.4 2 Oeste 4 Noroeste 0 -- -- 76
2017-11-11 17:00:00 17.6 3 Oeste 10 Este 0 -- -- 69
2017-11-11 16:00:00 18.6 6 Este 15 Norte 0 -- -- 65
2017-11-11 15:00:00 18.4 7 Norte 21 Noroeste 0 -- -- 63
2017-11-11 14:00:00 18.2 13 Noroeste 21 Oeste 0 -- -- 62
2017-11-11 13:00:00 18.9 13 Noroeste 21 Noroeste 0 -- -- 58
2017-11-11 12:00:00 18.8 9 Oeste 20 Oeste 0 -- -- 56
2017-11-11 11:00:00 18.2 9 Noroeste 21 Noroeste 0 -- -- 63
2017-11-11 10:00:00 16.6 6 Sudoeste 14 Sudoeste 0 -- -- 74
2017-11-11 09:00:00 14.9 7 Sudoeste 16 Noroeste 0 -- -- 78
2017-11-11 08:00:00 12.5 10 Oeste 18 Oeste 0 -- -- 83
2017-11-11 07:00:00 12.3 11 Noroeste 16 Oeste 0 -- -- 86
2017-11-11 06:00:00 10 6 Sudoeste 15 Oeste 0 -- -- 83
2017-11-11 05:00:00 10.1 8 Oeste 16 Oeste 0 -- -- 82
2017-11-11 04:00:00 10.5 9 Oeste 16 Sudoeste 0 -- -- 83
2017-11-11 03:00:00 10.6 12 Sudoeste 18 Sudoeste 0 -- -- 81
2017-11-11 02:00:00 10.4 10 Sudoeste 17 Sudoeste 0 -- -- 82
2017-11-11 01:00:00 9.3 11 Oeste 16 Sudoeste 0 -- -- 87
2017-11-11 00:00:00 8.1 5 Sudoeste 8 Oeste 0 -- -- 85
2017-11-10 23:00:00 9.5 7 Oeste 12 Oeste 0 -- -- 85
2017-11-10 22:00:00 9.7 7 Sudoeste 10 Oeste 0 -- -- 85
2017-11-10 21:00:00 9.8 6 Noroeste 9 Noroeste 0 -- -- 84
2017-11-10 20:00:00 11 6 Noroeste 19 Norte 0 -- -- 80
2017-11-10 19:00:00 11.7 7 Norte 13 Norte 0 -- -- 76
2017-11-10 18:00:00 12.9 6 Nordeste 20 Nordeste 0 -- -- 72
2017-11-10 17:00:00 13.5 15 Nordeste 28 Nordeste 0 -- -- 69
2017-11-10 16:00:00 13.7 16 Nordeste 34 Nordeste 0 -- -- 69
2017-11-10 15:00:00 13.6 17 Nordeste 30 Nordeste 0 -- -- 67
2017-11-10 14:00:00 14.3 20 Nordeste 37 Nordeste 0 -- -- 63
2017-11-10 13:00:00 14.4 27 Nordeste 42 Nordeste 0 -- -- 62
2017-11-10 12:00:00 13.9 17 Nordeste 30 Nordeste 0 -- -- 66
2017-11-10 11:00:00 13.6 20 Nordeste 39 Nordeste 0 -- -- 68
2017-11-10 10:00:00 12.6 18 Nordeste 35 Nordeste 0 -- -- 73
2017-11-10 09:00:00 12.1 15 Nordeste 27 Nordeste 0 -- -- 77
2017-11-10 08:00:00 11.1 15 Nordeste 32 Nordeste 0 -- -- 80
2017-11-10 07:00:00 11 20 Nordeste 32 Este 0 -- -- 78
2017-11-10 06:00:00 10.7 17 Nordeste 34 Nordeste 0.2 -- -- 84
2017-11-10 05:00:00 9 9 Norte 19 Noroeste 0 -- -- 93
2017-11-10 04:00:00 7.8 4 Oeste 13 Nordeste 0.2 -- -- 93
2017-11-10 03:00:00 7.7 5 Noroeste 18 Noroeste 0 -- -- 94
2017-11-10 02:00:00 7.3 4 Sudoeste 12 Sudoeste 0.2 -- -- 93
2017-11-10 01:00:00 7.5 5 Oeste 6 Oeste 0 -- -- 91
2017-11-10 00:00:00 8.1 5 Nordeste 26 Noroeste 0 -- -- 91
2017-11-09 23:00:00 7.8 14 Nordeste 35 Nordeste 2.2 -- -- 92
2017-11-09 22:00:00 8 4 Este 6 Este 0 -- -- 91
2017-11-09 21:00:00 9.4 0 Calma 8 Nordeste 0 -- -- 88
2017-11-09 20:00:00 10.2 6 Nordeste 14 Nordeste 0.2 -- -- 87
2017-11-09 19:00:00 10.2 7 Nordeste 12 Nordeste 0.2 -- -- 87
2017-11-09 18:00:00 11 2 Nordeste 8 Este 0 -- -- 82
2017-11-09 17:00:00 11.7 6 Nordeste 22 Este 0 -- -- 76
2017-11-09 16:00:00 12.3 13 Nordeste 26 Nordeste 0 -- -- 77
2017-11-09 15:00:00 14.1 15 Este 28 Este 0 -- -- 71
2017-11-09 14:00:00 13.1 10 Nordeste 26 Nordeste 0 -- -- 76
2017-11-09 13:00:00 12.5 10 Nordeste 29 Nordeste 0 -- -- 79
2017-11-09 12:00:00 12.8 14 Este 24 Este 0 -- -- 83
2017-11-09 11:00:00 11.8 3 Nordeste 9 Norte 0 -- -- 87
2017-11-09 10:00:00 10.6 6 Norte 11 Norte 0 -- -- 93
2017-11-09 09:00:00 9.1 5 Noroeste 9 Nordeste 0 -- -- 94
2017-11-09 08:00:00 8.6 5 Nordeste 17 Nordeste 0.4 -- -- 93
2017-11-09 07:00:00 8.8 16 Nordeste 36 Nordeste 2.4 -- -- 92
2017-11-09 06:00:00 9.5 18 Nordeste 36 Nordeste 0.2 -- -- 91
2017-11-09 05:00:00 9.3 0 Calma 7 Nordeste 0 -- -- 91
2017-11-09 04:00:00 9.8 6 Nordeste 21 Nordeste 0 -- -- 90
2017-11-09 03:00:00 10.1 8 Nordeste 18 Norte 0.2 -- -- 90
2017-11-09 02:00:00 10 12 Nordeste 27 Nordeste 0 -- -- 91
2017-11-09 01:00:00 10 12 Nordeste 19 Nordeste 0 -- -- 91
2017-11-09 00:00:00 9.3 5 Nordeste 43 Norte 0.6 -- -- 89
2017-11-08 23:00:00 9.7 9 Noroeste 26 Noroeste 0 -- -- 90
2017-11-08 22:00:00 10.5 4 Nordeste 13 Sudoeste 0.2 -- -- 85
2017-11-08 21:00:00 11.4 9 Noroeste 16 Oeste 0 -- -- 78
2017-11-08 20:00:00 11.4 6 Sudoeste 13 Sudoeste 0 -- -- 73
2017-11-08 19:00:00 13.3 9 Oeste 16 Oeste 0 -- -- 67
2017-11-08 18:00:00 13.5 6 Norte 23 Noroeste 0 -- -- 65
2017-11-08 17:00:00 15.6 12 Noroeste 27 Noroeste 0 -- -- 58
2017-11-08 16:00:00 16.6 15 Noroeste 27 Oeste 0 -- -- 55
2017-11-08 15:00:00 17.1 16 Noroeste 29 Noroeste 0 -- -- 53
2017-11-08 14:00:00 17.4 17 Oeste 30 Oeste 0 -- -- 50
2017-11-08 13:00:00 16.9 14 Oeste 32 Oeste 0 -- -- 56
2017-11-08 12:00:00 16.3 15 Oeste 31 Oeste 0 -- -- 59
2017-11-08 11:00:00 16.2 10 Oeste 27 Noroeste 0 -- -- 62
2017-11-08 10:00:00 15.5 14 Noroeste 28 Oeste 0 -- -- 70
2017-11-08 09:00:00 11.7 9 Sur 14 Sudoeste 0 -- -- 90
2017-11-08 08:00:00 6.4 5 Oeste 10 Sudoeste 0 -- -- 95
2017-11-08 07:00:00 5.2 3 Sudoeste 5 Sudoeste 0 -- -- 93
2017-11-08 06:00:00 4.6 2 Oeste 5 Noroeste 0 -- -- 94
2017-11-08 05:00:00 4.7 2 Oeste 5 Oeste 0 -- -- 92
2017-11-08 04:00:00 4.2 4 Noroeste 7 Oeste 0 -- -- 93
2017-11-08 03:00:00 3.3 2 Oeste 6 Sudoeste 0 -- -- 90
2017-11-08 02:00:00 3.8 3 Sudoeste 8 Sur 0 -- -- 89
2017-11-08 01:00:00 4.3 3 Oeste 5 Sudoeste 0 -- -- 88
2017-11-08 00:00:00 5.1 3 Noroeste 6 Este 0 -- -- 84
2017-11-07 23:00:00 5.7 3 Norte 8 Noroeste 0 -- -- 83
2017-11-07 22:00:00 6.6 2 Sudoeste 10 Noroeste 0 -- -- 77
2017-11-07 21:00:00 8.6 0 Calma 14 Sudoeste 0 -- -- 71
2017-11-07 20:00:00 9.4 10 Sudoeste 12 Sudoeste 0 -- -- 70
2017-11-07 19:00:00 11.1 8 Oeste 17 Oeste 0 -- -- 61
2017-11-07 18:00:00 12.2 12 Oeste 19 Oeste 0 -- -- 56
2017-11-07 17:00:00 14.6 11 Oeste 27 Noroeste 0 -- -- 44
2017-11-07 16:00:00 15.3 17 Noroeste 27 Noroeste 0 -- -- 46
2017-11-07 15:00:00 15.9 14 Noroeste 25 Noroeste 0 -- -- 48
2017-11-07 14:00:00 16.4 15 Noroeste 27 Noroeste 0 -- -- 51
2017-11-07 13:00:00 15.8 13 Noroeste 28 Noroeste 0 -- -- 51
2017-11-07 12:00:00 16 9 Sudoeste 22 Oeste 0 -- -- 54
2017-11-07 11:00:00 14.9 13 Sudoeste 20 Sudoeste 0 -- -- 61
2017-11-07 10:00:00 13 4 Sur 10 Sur 0 -- -- 80
2017-11-07 09:00:00 10.3 0 Calma 10 Oeste 0 -- -- 94
2017-11-07 08:00:00 6.6 0 Calma 4 Oeste 0 -- -- 94
2017-11-07 07:00:00 6.5 2 Noroeste 7 Sur 0 -- -- 94
2017-11-07 06:00:00 5.8 4 Oeste 8 Sudoeste 0 -- -- 94
2017-11-07 05:00:00 5 5 Sudoeste 8 Sudoeste 0 -- -- 93
2017-11-07 04:00:00 5.3 0 Calma 4 Oeste 0 -- -- 92
2017-11-07 03:00:00 5.9 3 Oeste 9 Oeste 0 -- -- 91
2017-11-07 02:00:00 6.5 2 Sur 6 Sudeste 0 -- -- 90
2017-11-07 01:00:00 7.7 4 Nordeste 12 Nordeste 0 -- -- 89
2017-11-07 00:00:00 8.8 9 Nordeste 19 Nordeste 0 -- -- 87
2017-11-06 23:00:00 9.4 10 Nordeste 24 Nordeste 0.2 -- -- 85
2017-11-06 22:00:00 9.8 12 Nordeste 31 Este 0.4 -- -- 76
2017-11-06 21:00:00 12.9 10 Nordeste 39 Oeste 0 -- -- 57
2017-11-06 20:00:00 13.9 18 Noroeste 35 Noroeste 0 -- -- 43
2017-11-06 19:00:00 13.4 11 Noroeste 28 Noroeste 0 -- -- 45
2017-11-06 18:00:00 13.7 10 Noroeste 36 Noroeste 0 -- -- 43
2017-11-06 17:00:00 14.7 19 Noroeste 34 Noroeste 0 -- -- 41
2017-11-06 16:00:00 15 19 Norte 54 Noroeste 0 -- -- 39
2017-11-06 15:00:00 15.8 23 Noroeste 41 Norte 0 -- -- 40
2017-11-06 14:00:00 15.9 24 Norte 42 Norte 0 -- -- 42
2017-11-06 13:00:00 15.6 25 Norte 41 Noroeste 0 -- -- 43
2017-11-06 12:00:00 15.7 17 Noroeste 35 Norte 0 -- -- 50
2017-11-06 11:00:00 14.3 17 Norte 41 Norte 0 -- -- 57
2017-11-06 10:00:00 11.7 10 Oeste 19 Noroeste 0.6 -- -- 86
2017-11-06 09:00:00 10.7 17 Noroeste 37 Oeste 2.6 -- -- 90
2017-11-06 08:00:00 9.8 4 Sur 12 Sudoeste 0.2 -- -- 96
2017-11-06 07:00:00 10.2 5 Sudeste 12 Sudeste 1.2 -- -- 95
2017-11-06 06:00:00 10.4 4 Sudoeste 6 Sudoeste 0 -- -- 96
2017-11-06 05:00:00 10.5 2 Sudeste 9 Este 0.2 -- -- 95
2017-11-06 04:00:00 10.8 4 Este 17 Nordeste 0.6 -- -- 95
2017-11-06 03:00:00 11 10 Este 30 Este 0.2 -- -- 95
2017-11-06 02:00:00 12.2 15 Este 28 Este 0 -- -- 95
2017-11-06 01:00:00 12.5 0 Calma 10 Norte 0 -- -- 95
2017-11-06 00:00:00 12.7 3 Norte 6 Nordeste 0.6 -- -- 95
2017-11-05 23:00:00 12.7 0 Calma 8 Noroeste 0.2 -- -- 95
2017-11-05 22:00:00 13 0 Calma 6 Este 0.2 -- -- 94
2017-11-05 21:00:00 13.3 6 Este 15 Este 0 -- -- 94
2017-11-05 20:00:00 13.5 6 Este 13 Este 0.2 -- -- 93
2017-11-05 19:00:00 13.7 4 Norte 8 Norte 0 -- -- 93
2017-11-05 18:00:00 14.1 5 Nordeste 18 Nordeste 0.4 -- -- 92
2017-11-05 17:00:00 14.7 15 Nordeste 25 Nordeste 0.2 -- -- 90
2017-11-05 16:00:00 16.8 5 Nordeste 15 Nordeste 0.4 -- -- 85
2017-11-05 15:00:00 17.7 8 Nordeste 28 Norte 0 -- -- 82
2017-11-05 14:00:00 19.3 13 Sudoeste 24 Sudoeste 0 -- -- 66
2017-11-05 13:00:00 19.5 16 Sudoeste 23 Sudoeste 0 -- -- 67
2017-11-05 12:00:00 19.1 11 Sur 17 Sur 0 -- -- 67
2017-11-05 11:00:00 19.9 6 Sudoeste 11 Sudoeste 0 -- -- 64
2017-11-05 10:00:00 19.6 7 Nordeste 15 Este 0 -- -- 70
2017-11-05 09:00:00 18 11 Noroeste 22 Noroeste 0 -- -- 70
2017-11-05 08:00:00 15.8 6 Norte 22 Noroeste 0 -- -- 78
2017-11-05 07:00:00 13.3 5 Oeste 14 Oeste 0 -- -- 93
2017-11-05 06:00:00 14 5 Oeste 13 Oeste 0.2 -- -- 91
2017-11-05 05:00:00 15 9 Oeste 16 Noroeste 0.2 -- -- 92
2017-11-05 04:00:00 14 7 Oeste 10 Sudoeste 0 -- -- 93
2017-11-05 03:00:00 14.3 9 Sudoeste 12 Sudoeste 0.2 -- -- 92
2017-11-05 02:00:00 14.5 8 Sur 12 Sur 0 -- -- 94
2017-11-05 01:00:00 14.2 5 Oeste 15 Sudoeste 0 -- -- 92
2017-11-05 00:00:00 14.6 12 Sudoeste 14 Sudoeste 0 -- -- 92
2017-11-04 23:00:00 14.6 10 Sudoeste 19 Sudoeste 0 -- -- 90
2017-11-04 22:00:00 15.2 14 Sudoeste 21 Sudoeste 0 -- -- 91
2017-11-04 21:00:00 15.8 11 Sur 20 Sudoeste 0.8 -- -- 90
2017-11-04 20:00:00 18.1 8 Sur 13 Sudoeste 0.4 -- -- 88
2017-11-04 19:00:00 19 3 Oeste 9 Sudoeste 0 -- -- 83
2017-11-04 18:00:00 19.6 8 Sudoeste 24 Sudoeste 0 -- -- 80
2017-11-04 17:00:00 21 16 Sudoeste 28 Sudoeste 0 -- -- 74
2017-11-04 16:00:00 22.1 22 Sudoeste 30 Sudoeste 0 -- -- 68
2017-11-04 15:00:00 22.9 21 Sudoeste 33 Sudoeste 0 -- -- 71
2017-11-04 14:00:00 23.5 19 Sudoeste 28 Sudoeste 0 -- -- 66
2017-11-04 13:00:00 23.3 15 Sudoeste 33 Sudoeste 0 -- -- 65
2017-11-04 12:00:00 22 12 Oeste 18 Sudoeste 0 -- -- 75
2017-11-04 11:00:00 20.7 6 Sudeste 9 Sudeste 0 -- -- 82
2017-11-04 10:00:00 18.3 3 Nordeste 8 Nordeste 0 -- -- 90
2017-11-04 09:00:00 15.7 2 Nordeste 5 Nordeste 0 -- -- 93
2017-11-04 08:00:00 14.2 3 Norte 5 Noroeste 0 -- -- 93
2017-11-04 07:00:00 14.1 3 Sudoeste 5 Oeste 0 -- -- 93
2017-11-04 06:00:00 14.7 4 Sur 9 Sudoeste 0 -- -- 92
2017-11-04 05:00:00 15.1 4 Noroeste 6 Nordeste 0 -- -- 91
2017-11-04 04:00:00 15.3 0 Calma 6 Sudeste 0 -- -- 90
2017-11-04 03:00:00 16.4 4 Nordeste 8 Norte 0 -- -- 89
2017-11-04 02:00:00 16.5 7 Norte 10 Noroeste 0 -- -- 89
2017-11-04 01:00:00 16.5 3 Norte 8 Noroeste 0 -- -- 88
2017-11-04 00:00:00 17 6 Norte 12 Noroeste 0 -- -- 89
2017-11-03 23:00:00 17 6 Norte 9 Norte 0 -- -- 88
2017-11-03 22:00:00 17.1 5 Norte 10 Noroeste 0 -- -- 87
2017-11-03 21:00:00 17.1 2 Norte 3 Sudoeste 0 -- -- 86
2017-11-03 20:00:00 17.7 0 Calma 4 Sudoeste 0 -- -- 83
2017-11-03 19:00:00 18.9 2 Sudoeste 5 Noroeste 0 -- -- 81
2017-11-03 18:00:00 19.9 0 Calma 9 Este 0 -- -- 76
2017-11-03 17:00:00 22 6 Este 13 Nordeste 0 -- -- 71
2017-11-03 16:00:00 23.5 10 Sudoeste 14 Sudoeste 0 -- -- 63
2017-11-03 15:00:00 23.5 3 Sudeste 10 Nordeste 0 -- -- 61
2017-11-03 14:00:00 23.2 4 Este 11 Sudoeste 0 -- -- 63
2017-11-03 13:00:00 22.4 4 Sudeste 19 Oeste 0 -- -- 64
2017-11-03 12:00:00 21.6 7 Sur 15 Sudeste 0 -- -- 67
2017-11-03 11:00:00 21 3 Sudeste 10 Este 0 -- -- 72
2017-11-03 10:00:00 19 0 Calma 4 Oeste 0 -- -- 88
2017-11-03 09:00:00 14.1 2 Sudoeste 5 Sur 0 -- -- 96
2017-11-03 08:00:00 9.3 2 Sudoeste 5 Sudoeste 0 -- -- 95
2017-11-03 07:00:00 8.6 4 Sur 5 Sudoeste 0 -- -- 94
2017-11-03 06:00:00 9 2 Sudoeste 4 Sur 0 -- -- 94
2017-11-03 05:00:00 9.7 4 Noroeste 6 Noroeste 0 -- -- 94
2017-11-03 04:00:00 9.6 2 Sudoeste 5 Sudoeste 0 -- -- 93
2017-11-03 03:00:00 9.9 3 Sudoeste 4 Sudoeste 0 -- -- 92
2017-11-03 02:00:00 10.4 2 Oeste 5 Noroeste 0 -- -- 91
2017-11-03 01:00:00 11.2 0 Calma 4 Oeste 0 -- -- 90
2017-11-03 00:00:00 12.8 0 Calma 9 Noroeste 0 -- -- 90
2017-11-02 23:00:00 13.2 4 Noroeste 6 Noroeste 0 -- -- 89
2017-11-02 22:00:00 14 4 Noroeste 8 Norte 0 -- -- 87
2017-11-02 21:00:00 14.7 6 Noroeste 7 Noroeste 0 -- -- 86
2017-11-02 20:00:00 15.4 0 Calma 4 Sur 0 -- -- 82
2017-11-02 19:00:00 17.3 4 Sur 9 Sudeste 0 -- -- 75
2017-11-02 18:00:00 19.1 5 Sudoeste 18 Oeste 0 -- -- 72
2017-11-02 17:00:00 21.3 11 Oeste 16 Oeste 0 -- -- 65
2017-11-02 16:00:00 22.9 6 Sudeste 13 Sur 0 -- -- 53
2017-11-02 15:00:00 23.1 4 Sudoeste 12 Sudeste 0 -- -- 53
2017-11-02 14:00:00 22.7 5 Sudeste 13 Sur 0 -- -- 56
2017-11-02 13:00:00 22.2 4 Sur 13 Sur 0 -- -- 59
2017-11-02 12:00:00 21.3 4 Oeste 12 Sur 0 -- -- 59
2017-11-02 11:00:00 20.3 5 Sur 10 Sur 0 -- -- 68
2017-11-02 10:00:00 18.6 0 Calma 3 Sur 0 -- -- 83
2017-11-02 09:00:00 14.3 0 Calma 4 Noroeste 0 -- -- 95
2017-11-02 08:00:00 9 3 Oeste 4 Noroeste 0 -- -- 95
2017-11-02 07:00:00 8.2 3 Oeste 4 Oeste 0 -- -- 93
2017-11-02 06:00:00 8.6 3 Noroeste -- -- 0 -- -- 93
2017-11-02 05:00:00 8.9 2 Sudoeste -- -- 0 -- -- 92
2017-11-02 04:00:00 9.6 0 Calma 4 Oeste 0 -- -- 92
2017-11-02 03:00:00 9.8 3 Oeste 5 Noroeste 0 -- -- 91
2017-11-02 02:00:00 10 0 Calma 3 Sur 0 -- -- 90
2017-11-02 01:00:00 10.8 3 Oeste 6 Sudoeste 0 -- -- 89
2017-11-02 00:00:00 11.5 3 Noroeste -- -- 0 -- -- 87
2017-11-01 23:00:00 12.2 -- -- -- -- 0 -- -- 84
2017-11-01 22:00:00 13.7 3 Noroeste 7 Norte 0 -- -- 81
2017-11-01 21:00:00 15.2 4 Norte 10 Noroeste 0 -- -- 80
2017-11-01 20:00:00 15.8 6 Norte 7 Noroeste 0 -- -- 79
2017-11-01 19:00:00 16.5 4 Norte 6 Nordeste 0 -- -- 74
2017-11-01 18:00:00 17.6 5 Este 10 Nordeste 0 -- -- 69
2017-11-01 17:00:00 19.6 6 Nordeste 17 Este 0 -- -- 62
2017-11-01 16:00:00 21.1 8 Este 17 Este 0 -- -- 59
2017-11-01 15:00:00 20.9 10 Este 19 Este 0 -- -- 61
2017-11-01 14:00:00 20.9 3 Este 13 Nordeste 0 -- -- 58
2017-11-01 13:00:00 21.2 4 Sudeste 10 Este 0 -- -- 58
2017-11-01 12:00:00 21.3 3 Sur 12 Este 0 -- -- 60
2017-11-01 11:00:00 20 4 Este 11 Este 0 -- -- 66
2017-11-01 10:00:00 18.2 2 Sur 5 Sur 0 -- -- 75
2017-11-01 09:00:00 13.6 2 Sudoeste 6 Sudoeste 0 -- -- 94
2017-11-01 08:00:00 8.4 0 Calma 6 Oeste 0 -- -- 94
2017-11-01 07:00:00 8.2 5 Noroeste 6 Noroeste 0 -- -- 93
2017-11-01 06:00:00 8.2 5 Noroeste 6 Noroeste 0 -- -- 92
2017-11-01 05:00:00 8.4 3 Noroeste 6 Noroeste 0 -- -- 92
2017-11-01 04:00:00 8.8 4 Oeste -- -- 0 -- -- 91
2017-11-01 03:00:00 9.2 3 Sudoeste 7 Noroeste 0 -- -- 91
2017-11-01 02:00:00 9.3 4 Oeste 6 Noroeste 0 -- -- 91
2017-11-01 01:00:00 9.9 3 Noroeste 6 Noroeste 0 -- -- 89
2017-11-01 00:00:00 10.6 6 Oeste 9 Oeste 0 -- -- 89
2017-10-31 23:00:00 11.3 2 Noroeste 8 Noroeste 0 -- -- 87
2017-10-31 22:00:00 12 3 Noroeste 9 Noroeste 0 -- -- 85
2017-10-31 21:00:00 12.6 7 Noroeste 11 Norte 0 -- -- 85
2017-10-31 20:00:00 14.1 4 Norte 11 Nordeste 0 -- -- 81
2017-10-31 19:00:00 15.6 7 Nordeste 19 Nordeste 0 -- -- 77
2017-10-31 18:00:00 16.7 12 Nordeste 24 Este 0 -- -- 72
2017-10-31 17:00:00 18.7 14 Nordeste 26 Este 0 -- -- 64
2017-10-31 16:00:00 20.6 13 Nordeste 26 Este 0 -- -- 57
2017-10-31 15:00:00 21.2 14 Este 25 Nordeste 0 -- -- 54
2017-10-31 14:00:00 20.9 12 Nordeste 24 Este 0 -- -- 57
2017-10-31 13:00:00 19.5 12 Nordeste 22 Nordeste 0 -- -- 63
2017-10-31 12:00:00 18.7 15 Este 31 Nordeste 0 -- -- 66
2017-10-31 11:00:00 18.6 13 Nordeste 25 Nordeste 0 -- -- 66
2017-10-31 10:00:00 17.6 9 Nordeste 20 Este 0 -- -- 71
2017-10-31 09:00:00 16.5 10 Nordeste 21 Nordeste 0 -- -- 74
2017-10-31 08:00:00 15.1 11 Nordeste 17 Nordeste 0 -- -- 79
2017-10-31 07:00:00 14 7 Nordeste 14 Nordeste 0 -- -- 81
2017-10-31 06:00:00 13.5 8 Nordeste 14 Nordeste 0 -- -- 82
2017-10-31 05:00:00 13.9 8 Nordeste 16 Norte 0 -- -- 80
2017-10-31 04:00:00 14.3 6 Nordeste 18 Nordeste 0 -- -- 78
2017-10-31 03:00:00 15.7 10 Nordeste 20 Nordeste 0 -- -- 76
2017-10-31 02:00:00 16.3 12 Nordeste 19 Nordeste 0 -- -- 74
2017-10-31 01:00:00 16.3 10 Nordeste 17 Este 0 -- -- 81
2017-10-31 00:00:00 16.4 7 Nordeste 18 Nordeste 0 -- -- 85
2017-10-30 23:00:00 16.2 8 Nordeste 18 Nordeste 0 -- -- 90
2017-10-30 22:00:00 16.2 8 Nordeste 17 Nordeste 0 -- -- 88
2017-10-30 21:00:00 15.9 2 Nordeste 10 Nordeste 0 -- -- 86
2017-10-30 20:00:00 16.2 5 Nordeste 9 Nordeste 0 -- -- 85
2017-10-30 19:00:00 16.9 6 Nordeste 12 Nordeste 0 -- -- 82
2017-10-30 18:00:00 18 6 Este 21 Este 0 -- -- 76
2017-10-30 17:00:00 19.7 11 Este 23 Nordeste 0 -- -- 69
2017-10-30 16:00:00 21.8 5 Sur 26 Sur 0 -- -- 58
2017-10-30 15:00:00 21.9 2 Sur 17 Sudoeste 0 -- -- 55
2017-10-30 14:00:00 22.5 7 Sudoeste 17 Sudoeste 0 -- -- 51
2017-10-30 13:00:00 21.7 9 Sudoeste 17 Oeste 0 -- -- 54
2017-10-30 12:00:00 21.5 8 Sudoeste 13 Sudoeste 0 -- -- 58
2017-10-30 11:00:00 20.4 5 Sudoeste 13 Sudoeste 0 -- -- 64
2017-10-30 10:00:00 18.6 3 Sur 7 Sur 0 -- -- 81
2017-10-30 09:00:00 14.9 3 Sudoeste 5 Noroeste 0 -- -- 95
2017-10-30 08:00:00 9.6 4 Noroeste 6 Noroeste 0 -- -- 95
2017-10-30 07:00:00 8.7 5 Noroeste 6 Noroeste 0 -- -- 93
2017-10-30 06:00:00 8.8 3 Oeste 4 Sudoeste 0 -- -- 93
2017-10-30 05:00:00 9.1 2 Sur 5 Noroeste 0 -- -- 92
2017-10-30 04:00:00 9.8 3 Oeste 6 Oeste 0 -- -- 92
2017-10-30 03:00:00 10.4 5 Noroeste 7 Noroeste 0 -- -- 92
2017-10-30 02:00:00 10.5 3 Noroeste 4 Noroeste 0 -- -- 91
2017-10-30 01:00:00 11.2 3 Noroeste 5 Norte 0 -- -- 90
2017-10-30 00:00:00 12.1 0 Calma 4 Noroeste 0 -- -- 89
2017-10-29 23:00:00 13.9 3 Noroeste 8 Oeste 0 -- -- 87
2017-10-29 22:00:00 15.8 6 Oeste 13 Sudoeste 0 -- -- 84
2017-10-29 21:00:00 17 8 Oeste 20 Sudoeste 0 -- -- 81
2017-10-29 20:00:00 17.9 14 Sudoeste 27 Sudoeste 0 -- -- 78
2017-10-29 19:00:00 18 16 Sudoeste 25 Sudoeste 0 -- -- 78
2017-10-29 18:00:00 19.4 13 Oeste 23 Oeste 0 -- -- 71
2017-10-29 17:00:00 22 15 Oeste 25 Oeste 0 -- -- 61
2017-10-29 16:00:00 22.2 18 Sudoeste 27 Sudoeste 0 -- -- 70
2017-10-29 15:00:00 22.4 19 Sudoeste 31 Sudoeste 0 -- -- 70
2017-10-29 14:00:00 22.8 19 Sudoeste 28 Sudoeste 0 -- -- 66
2017-10-29 13:00:00 22.6 20 Sudoeste 26 Sudoeste 0 -- -- 64
2017-10-29 12:00:00 22.2 13 Sudoeste 21 Sudoeste 0 -- -- 67
2017-10-29 11:00:00 21.5 9 Sudoeste 12 Sudoeste 0 -- -- 64
2017-10-29 10:00:00 19.4 2 Oeste 4 Sudoeste 0 -- -- 82
2017-10-29 09:00:00 15.4 0 Calma 8 Nordeste 0 -- -- 96
2017-10-29 08:00:00 11.2 4 Oeste 8 Sudoeste 0 -- -- 96
2017-10-29 07:00:00 9.8 2 Sudoeste 6 Norte 0 -- -- 94
2017-10-29 06:00:00 10.4 3 Noroeste 4 Noroeste 0 -- -- 94
2017-10-29 05:00:00 10.8 0 Calma 3 Norte 0 -- -- 93
2017-10-29 04:00:00 11.4 0 Calma 6 Oeste 0 -- -- 91
2017-10-29 03:00:00 11.7 4 Oeste 8 Oeste 0 -- -- 91
2017-10-29 02:00:00 12 3 Sudoeste 9 Oeste 0 -- -- 88
2017-10-29 01:00:00 14.1 9 Oeste 19 Sudoeste 0 -- -- 89
2017-10-29 00:00:00 12.6 7 Sudoeste 10 Oeste 0 -- -- 90
2017-10-28 23:00:00 12.9 8 Oeste 10 Oeste 0 -- -- 88
2017-10-28 22:00:00 13.5 5 Noroeste 8 Noroeste 0 -- -- 87
2017-10-28 21:00:00 14.2 4 Oeste 8 Oeste 0 -- -- 83
2017-10-28 20:00:00 15.7 2 Oeste 3 Este 0 -- -- 76
2017-10-28 19:00:00 17.9 2 Sudeste 13 Este 0 -- -- 70
2017-10-28 18:00:00 19.8 9 Este 23 Este 0 -- -- 64
2017-10-28 17:00:00 20.9 13 Este 33 Este 0 -- -- 59
2017-10-28 16:00:00 21.4 15 Este 33 Este 0 -- -- 57
2017-10-28 15:00:00 21.6 19 Este 36 Nordeste 0 -- -- 52
2017-10-28 14:00:00 21.5 22 Nordeste 39 Nordeste 0 -- -- 58
2017-10-28 13:00:00 21.7 19 Nordeste 33 Nordeste 0 -- -- 57
2017-10-28 12:00:00 20.8 21 Nordeste 40 Nordeste 0 -- -- 58
2017-10-28 11:00:00 20 22 Nordeste 33 Nordeste 0 -- -- 65
2017-10-28 10:00:00 18.3 12 Nordeste 26 Nordeste 0 -- -- 85
2017-10-28 09:00:00 14 2 Este 12 Este 0 -- -- 93
2017-10-28 08:00:00 13.8 0 Calma 10 Oeste 0 -- -- 93
2017-10-28 07:00:00 12.4 5 Sudoeste 10 Oeste 0 -- -- 92
2017-10-28 06:00:00 12.3 2 Oeste 13 Sudeste 0 -- -- 91
2017-10-28 05:00:00 12.7 4 Oeste 8 Noroeste 0 -- -- 90
2017-10-28 04:00:00 12.6 4 Noroeste 6 Noroeste 0 -- -- 90
2017-10-28 03:00:00 13 3 Oeste 10 Norte 0 -- -- 89
2017-10-28 02:00:00 13.5 3 Oeste 7 Noroeste 0 -- -- 89
2017-10-28 01:00:00 14.5 0 Calma 8 Norte 0 -- -- 88
2017-10-28 00:00:00 15.6 4 Noroeste 5 Noroeste 0 -- -- 85
2017-10-27 23:00:00 17.7 4 Nordeste 15 Nordeste 0 -- -- 82
2017-10-27 22:00:00 18.8 10 Nordeste 22 Nordeste 0 -- -- 82
2017-10-27 21:00:00 18.9 12 Este 19 Este 0 -- -- 74
2017-10-27 20:00:00 19.4 6 Sudeste 11 Este 0 -- -- 77
2017-10-27 19:00:00 22 5 Nordeste 17 Noroeste 0 -- -- 63
2017-10-27 18:00:00 24.3 7 Sur 14 Sudoeste 0 -- -- 67
2017-10-27 17:00:00 24.4 9 Sur 17 Sur 0 -- -- 65
2017-10-27 16:00:00 25.1 10 Sudoeste 18 Sur 0 -- -- 63
2017-10-27 15:00:00 25.7 8 Sudoeste 13 Sudoeste 0 -- -- 57
2017-10-27 14:00:00 24.9 4 Sur 8 Sudoeste 0 -- -- 61
2017-10-27 13:00:00 23.6 5 Sur 10 Sudoeste 0 -- -- 69
2017-10-27 12:00:00 22.1 5 Sudoeste 14 Sudoeste 0 -- -- 75
2017-10-27 11:00:00 19.8 11 Sudoeste 16 Sudoeste 0 -- -- 88
2017-10-27 10:00:00 16.2 3 Sudoeste 8 Sudoeste 0 -- -- 97
2017-10-27 09:00:00 11.1 5 Sudoeste 7 Oeste 0 -- -- 97
2017-10-27 08:00:00 9.8 3 Oeste 7 Sudoeste 0 -- -- 95
2017-10-27 07:00:00 9.7 2 Oeste 5 Sudoeste 0 -- -- 95
2017-10-27 06:00:00 10.6 3 Sudoeste 5 Noroeste 0 -- -- 95
2017-10-27 05:00:00 11 4 Noroeste 6 Noroeste 0 -- -- 95
2017-10-27 04:00:00 11.2 4 Oeste 5 Oeste 0 -- -- 95
2017-10-27 03:00:00 11.9 2 Oeste 5 Oeste 0 -- -- 94
2017-10-27 02:00:00 12.8 2 Noroeste 4 Norte 0 -- -- 94
2017-10-27 01:00:00 14.6 0 Calma 10 Sudoeste 0 -- -- 93
2017-10-27 00:00:00 14.5 5 Sudoeste 8 Oeste 0 -- -- 93
2017-10-26 23:00:00 15.9 6 Oeste 8 Oeste 0 -- -- 92
2017-10-26 22:00:00 16.8 4 Oeste 8 Oeste 0 -- -- 90
2017-10-26 21:00:00 17.7 5 Oeste 9 Sudoeste 0 -- -- 88
2017-10-26 20:00:00 18.8 6 Oeste 10 Oeste 0 -- -- 84
2017-10-26 19:00:00 20.5 7 Sudoeste 16 Sudoeste 0 -- -- 77
2017-10-26 18:00:00 22.6 12 Sudoeste 18 Sudoeste 0 -- -- 71
2017-10-26 17:00:00 23.5 14 Sudoeste 21 Sudoeste 0 -- -- 68
2017-10-26 16:00:00 24 15 Sudoeste 21 Sudoeste 0 -- -- 67
2017-10-26 15:00:00 24.5 12 Sudoeste 26 Sudoeste 0 -- -- 64
2017-10-26 14:00:00 24.1 13 Sudoeste 21 Oeste 0 -- -- 65
2017-10-26 13:00:00 23.3 14 Sudoeste 24 Sudoeste 0 -- -- 68
2017-10-26 12:00:00 22 15 Sudoeste 22 Sudoeste 0 -- -- 77
2017-10-26 11:00:00 20.7 11 Sudoeste 18 Oeste 0 -- -- 87
2017-10-26 10:00:00 16.9 2 Sudoeste 5 Sudoeste 0 -- -- 96
2017-10-26 09:00:00 11.7 3 Sudoeste 5 Sudoeste 0 -- -- 97
2017-10-26 08:00:00 10.3 4 Sudoeste 6 Noroeste 0 -- -- 95
2017-10-26 07:00:00 11 4 Noroeste 6 Noroeste 0 -- -- 96
2017-10-26 06:00:00 11.2 3 Oeste 4 Sudoeste 0 -- -- 95
2017-10-26 05:00:00 11.5 3 Oeste 8 Oeste 0 -- -- 95
2017-10-26 04:00:00 11.6 2 Sudoeste 4 Oeste 0 -- -- 94
2017-10-26 03:00:00 12.1 0 Calma 6 Oeste 0 -- -- 94
2017-10-26 02:00:00 12.7 3 Oeste -- -- 0 -- -- 93
2017-10-26 01:00:00 13.4 2 Sudoeste 3 Sudoeste 0 -- -- 93
2017-10-26 00:00:00 14.1 2 Oeste 5 Noroeste 0 -- -- 92
2017-10-25 23:00:00 15.2 5 Noroeste 6 Oeste 0 -- -- 91
2017-10-25 22:00:00 16.3 3 Oeste 4 Oeste 0 -- -- 89
2017-10-25 21:00:00 18.1 4 Oeste 11 Oeste 0 -- -- 89
2017-10-25 20:00:00 19.2 6 Oeste 9 Sudoeste 0 -- -- 85
2017-10-25 19:00:00 20.5 9 Sudoeste 20 Sudoeste 0 -- -- 80
2017-10-25 18:00:00 22.3 14 Sudoeste 21 Sudoeste 0 -- -- 72
2017-10-25 17:00:00 23.6 13 Sudoeste 21 Sudoeste 0 -- -- 67
2017-10-25 16:00:00 24 12 Sudoeste 21 Sudoeste 0 -- -- 66
2017-10-25 15:00:00 24.2 12 Sudoeste 21 Sudoeste 0 -- -- 61
2017-10-25 14:00:00 23.6 10 Sudoeste 20 Sudoeste 0 -- -- 65
2017-10-25 13:00:00 22.9 12 Sudoeste 19 Sudoeste 0 -- -- 67
2017-10-25 12:00:00 22.1 12 Sudoeste 17 Sudoeste 0 -- -- 73
2017-10-25 11:00:00 20.3 8 Oeste 15 Sudoeste 0 -- -- 81
2017-10-25 10:00:00 15.1 0 Calma 4 Sur 0 -- -- 94
2017-10-25 09:00:00 10.8 3 Sudoeste 7 Oeste 0 -- -- 96
2017-10-25 08:00:00 9.3 5 Oeste 7 Noroeste 0 -- -- 94
2017-10-25 07:00:00 9.7 3 Sudoeste 8 Noroeste 0 -- -- 93
2017-10-25 06:00:00 9.8 3 Oeste 5 Oeste 0 -- -- 93
2017-10-25 05:00:00 9.9 4 Sudoeste 7 Sudoeste 0 -- -- 93
2017-10-25 04:00:00 10.6 3 Oeste 4 Oeste 0 -- -- 93
2017-10-25 03:00:00 11.2 3 Noroeste 5 Noroeste 0 -- -- 93
2017-10-25 02:00:00 11.4 0 Calma 4 Sudeste 0 -- -- 91
2017-10-25 01:00:00 12.1 4 Sur 6 Sudoeste 0 -- -- 91
2017-10-25 00:00:00 12.8 4 Oeste 7 Sudoeste 0 -- -- 89